Time;durP1;ratioP1;P1;durP2;ratioP2;P2;SDS_P1;SDS_P2;PMS_P1;PMS_P2;Temp;Humidity;BMP_temperature;BMP_pressure;BME280_temperature;BME280_humidity;BME280_pressure;Samples;Min_cycle;Max_cycle;Signal;HPM_P1;HPM_P2
2024/01/13 00:00:33;;;;;;;49.10;15.80;;;;;;;-139.19;100.00;56970.53;5092092;28;20048;-71
2024/01/13 00:03:00;;;;;;;57.67;16.15;;;;;;;-139.19;100.00;56970.53;5085964;28;20051;-70
2024/01/13 00:05:26;;;;;;;45.90;15.07;;;;;;;-139.19;100.00;56970.53;5086643;28;20032;-71
2024/01/13 00:07:51;;;;;;;49.70;14.93;;;;;;;-139.19;100.00;56970.53;5083335;28;20020;-70
2024/01/13 00:10:17;;;;;;;47.95;15.05;;;;;;;-139.19;100.00;56970.53;5088764;28;20107;-70
2024/01/13 00:12:42;;;;;;;58.33;18.65;;;;;;;-139.19;100.00;56970.53;5090891;28;20091;-71
2024/01/13 00:15:08;;;;;;;54.97;16.10;;;;;;;-139.19;100.00;56970.53;5080178;28;20020;-70
2024/01/13 00:17:33;;;;;;;51.55;14.32;;;;;;;-139.19;100.00;56970.53;5084682;28;20032;-71
2024/01/13 00:19:58;;;;;;;43.72;13.93;;;;;;;-139.19;100.00;56970.53;5082975;28;20024;-71
2024/01/13 00:22:24;;;;;;;53.90;17.08;;;;;;;-139.19;100.00;56970.53;5083378;28;20035;-71
2024/01/13 00:24:49;;;;;;;54.92;16.58;;;;;;;-139.19;100.00;56970.53;5083883;28;20070;-70
2024/01/13 00:27:14;;;;;;;48.67;15.23;;;;;;;-139.19;100.00;56970.53;5089361;28;20119;-70
2024/01/13 00:29:40;;;;;;;50.17;15.48;;;;;;;-139.19;100.00;56970.53;5082618;28;20031;-70
2024/01/13 00:32:05;;;;;;;62.25;18.85;;;;;;;-139.19;100.00;56970.53;5084075;28;20035;-70
2024/01/13 00:34:31;;;;;;;60.00;19.20;;;;;;;-139.19;100.00;56970.53;5083071;28;20456;-70
2024/01/13 00:36:56;;;;;;;51.22;16.65;;;;;;;-139.19;100.00;56970.53;5085040;28;20027;-71
2024/01/13 00:39:21;;;;;;;43.25;14.98;;;;;;;-139.19;100.00;56970.53;5079639;28;20618;-71
2024/01/13 00:41:47;;;;;;;47.60;14.50;;;;;;;-139.19;100.00;56970.53;5083093;28;20028;-71
2024/01/13 00:44:12;;;;;;;50.72;17.38;;;;;;;-139.19;100.00;56970.53;5075801;28;20039;-71
2024/01/13 00:46:37;;;;;;;42.15;14.85;;;;;;;-139.19;100.00;56970.53;5081340;28;20028;-70
2024/01/13 00:49:03;;;;;;;52.80;15.60;;;;;;;-139.19;100.00;56970.53;5073713;28;20086;-70
2024/01/13 00:51:30;;;;;;;52.78;15.95;;;;;;;-139.19;100.00;56970.53;5086033;28;20412;-71
2024/01/13 00:53:55;;;;;;;48.67;15.60;;;;;;;-139.19;100.00;56970.53;5081946;28;20024;-70
2024/01/13 00:56:21;;;;;;;48.22;16.95;;;;;;;-139.19;100.00;56970.53;5088777;28;20434;-71
2024/01/13 00:58:46;;;;;;;54.65;16.85;;;;;;;-139.19;100.00;56970.53;5090116;28;20026;-71
2024/01/13 01:01:13;;;;;;;45.75;14.65;;;;;;;-139.19;100.00;56970.53;5076405;28;20058;-71
2024/01/13 01:03:38;;;;;;;54.03;16.67;;;;;;;-139.19;100.00;56970.53;5085810;28;20081;-71
2024/01/13 01:06:04;;;;;;;54.13;16.45;;;;;;;-139.19;100.00;56970.53;5082056;28;20021;-71
2024/01/13 01:08:29;;;;;;;46.60;15.20;;;;;;;-139.19;100.00;56970.53;5090136;28;20020;-71
2024/01/13 01:10:55;;;;;;;46.28;15.52;;;;;;;-139.19;100.00;56970.53;5085416;28;20035;-71
2024/01/13 01:13:20;;;;;;;44.13;17.40;;;;;;;-139.19;100.00;56970.53;5088902;28;20038;-71
2024/01/13 01:15:45;;;;;;;46.30;16.98;;;;;;;-139.19;100.00;56970.53;5090469;28;20452;-72
2024/01/13 01:18:11;;;;;;;43.63;15.48;;;;;;;-139.19;100.00;56970.53;5088360;28;20024;-71
2024/01/13 01:20:36;;;;;;;53.70;16.70;;;;;;;-139.19;100.00;56970.53;5080231;28;20045;-71
2024/01/13 01:23:01;;;;;;;53.67;16.67;;;;;;;-139.19;100.00;56970.53;5085773;28;20036;-71
2024/01/13 01:25:27;;;;;;;47.55;15.57;;;;;;;-139.19;100.00;56970.53;5087598;28;20073;-72
2024/01/13 01:27:52;;;;;;;50.25;16.23;;;;;;;-139.19;100.00;56970.53;5079989;28;20142;-71
2024/01/13 01:30:17;;;;;;;49.25;16.80;;;;;;;-139.19;100.00;56970.53;5084933;28;20035;-71
2024/01/13 01:32:43;;;;;;;51.60;15.95;;;;;;;-139.19;100.00;56970.53;5088652;28;20039;-71
2024/01/13 01:35:08;;;;;;;43.60;14.68;;;;;;;-139.19;100.00;56970.53;5085950;28;20028;-72
2024/01/13 01:37:34;;;;;;;47.67;17.05;;;;;;;-139.19;100.00;56970.53;5076392;28;20027;-71
2024/01/13 01:40:00;;;;;;;42.17;14.32;;;;;;;-139.19;100.00;56970.53;5074071;28;20020;-71
2024/01/13 01:42:25;;;;;;;45.75;15.07;;;;;;;-139.19;100.00;56970.53;5086274;28;20039;-71
2024/01/13 01:44:50;;;;;;;44.60;15.15;;;;;;;-139.19;100.00;56970.53;5084752;28;20039;-71
2024/01/13 01:47:19;;;;;;;48.88;15.68;;;;;;;-139.19;100.00;56970.53;5089033;28;20379;-71
2024/01/13 01:49:45;;;;;;;51.08;16.80;;;;;;;-139.19;100.00;56970.53;5079616;28;20020;-71
2024/01/13 01:52:11;;;;;;;49.33;15.25;;;;;;;-139.19;100.00;56970.53;5085068;28;20389;-71
2024/01/13 01:54:37;;;;;;;45.60;15.32;;;;;;;-139.19;100.00;56970.53;5086870;28;20036;-71
2024/01/13 01:57:03;;;;;;;48.85;17.00;;;;;;;-139.19;100.00;56970.53;5078919;28;20020;-72
2024/01/13 01:59:29;;;;;;;46.28;15.20;;;;;;;-139.19;100.00;56970.53;5089734;28;20396;-72
2024/01/13 02:01:55;;;;;;;46.50;15.40;;;;;;;-139.19;100.00;56970.53;5085704;28;20029;-71
2024/01/13 02:04:20;;;;;;;59.45;15.77;;;;;;;-139.19;100.00;56970.53;5076304;28;20050;-71
2024/01/13 02:06:46;;;;;;;50.05;15.98;;;;;;;-139.19;100.00;56970.53;5084151;28;20016;-71
2024/01/13 02:09:14;;;;;;;60.45;16.55;;;;;;;-139.19;100.00;56970.53;5073747;28;20040;-71
2024/01/13 02:11:40;;;;;;;50.97;17.33;;;;;;;-139.19;100.00;56970.53;5088218;28;20032;-72
2024/01/13 02:14:05;;;;;;;49.83;17.48;;;;;;;-139.19;100.00;56970.53;5081228;28;20025;-71
2024/01/13 02:16:31;;;;;;;63.72;17.30;;;;;;;-139.19;100.00;56970.53;5087044;28;20035;-71
2024/01/13 02:18:57;;;;;;;46.08;16.95;;;;;;;-139.19;100.00;56970.53;5089919;28;20110;-72
2024/01/13 02:21:22;;;;;;;61.05;19.05;;;;;;;-139.19;100.00;56970.53;5077677;28;20078;-72
2024/01/13 02:23:48;;;;;;;57.80;16.23;;;;;;;-139.19;100.00;56970.53;5074287;28;20063;-72
2024/01/13 02:26:13;;;;;;;50.50;15.07;;;;;;;-139.19;100.00;56970.53;5077572;28;20028;-72
2024/01/13 02:28:39;;;;;;;56.92;17.25;;;;;;;-139.19;100.00;56970.53;5088295;28;20040;-71
2024/01/13 02:31:04;;;;;;;57.45;17.73;;;;;;;-139.19;100.00;56970.53;5074984;28;20125;-71
2024/01/13 02:33:30;;;;;;;60.75;18.17;;;;;;;-139.19;100.00;56970.53;5091639;28;20028;-72
2024/01/13 02:35:55;;;;;;;67.57;17.05;;;;;;;-139.19;100.00;56970.53;5077277;28;20036;-72
2024/01/13 02:38:20;;;;;;;50.20;16.42;;;;;;;-139.19;100.00;56970.53;5085094;28;20060;-71
2024/01/13 02:40:46;;;;;;;58.30;18.92;;;;;;;-139.19;100.00;56970.53;5093241;28;20028;-71
2024/01/13 02:43:11;;;;;;;56.05;18.90;;;;;;;-139.19;100.00;56970.53;5083178;28;20043;-71
2024/01/13 02:45:36;;;;;;;55.28;18.65;;;;;;;-139.19;100.00;56970.53;5081955;28;20030;-71
2024/01/13 02:48:10;;;;;;;59.83;18.58;;;;;;;-139.19;100.00;56970.53;5080989;28;20091;-71
2024/01/13 02:50:35;;;;;;;73.10;21.98;;;;;;;-139.19;100.00;56970.53;5087801;28;20016;-71
2024/01/13 02:53:01;;;;;;;74.70;21.45;;;;;;;-139.19;100.00;56970.53;5089601;28;20028;-71
2024/01/13 02:55:26;;;;;;;74.10;22.52;;;;;;;-139.19;100.00;56970.53;5083193;28;20039;-71
2024/01/13 02:57:51;;;;;;;79.95;23.40;;;;;;;-139.19;100.00;56970.53;5092396;28;20031;-71
2024/01/13 03:00:17;;;;;;;84.88;25.55;;;;;;;-139.19;100.00;56970.53;5084932;28;20048;-71
2024/01/13 03:02:44;;;;;;;88.93;25.25;;;;;;;-139.19;100.00;56970.53;5083605;28;20070;-71
2024/01/13 03:05:10;;;;;;;75.75;21.38;;;;;;;-139.19;100.00;56970.53;5091227;28;20080;-71
2024/01/13 03:07:35;;;;;;;66.32;20.40;;;;;;;-139.19;100.00;56970.53;5089595;28;20028;-71
2024/01/13 03:10:01;;;;;;;76.05;21.52;;;;;;;-139.19;100.00;56970.53;5083367;28;20441;-71
2024/01/13 03:12:26;;;;;;;62.63;20.80;;;;;;;-139.19;100.00;56970.53;5073822;28;20025;-71
2024/01/13 03:14:52;;;;;;;77.68;22.77;;;;;;;-139.19;100.00;56970.53;5083994;28;20047;-71
2024/01/13 03:17:17;;;;;;;68.95;21.08;;;;;;;-139.19;100.00;56970.53;5092347;28;20044;-70
2024/01/13 03:19:42;;;;;;;80.57;21.45;;;;;;;-139.19;100.00;56970.53;5083688;28;20715;-70
2024/01/13 03:22:08;;;;;;;69.32;21.58;;;;;;;-139.19;100.00;56970.53;5077456;28;20040;-71
2024/01/13 03:24:33;;;;;;;87.05;23.10;;;;;;;-139.19;100.00;56970.53;5090320;28;20086;-70
2024/01/13 03:26:58;;;;;;;66.53;21.60;;;;;;;-139.19;100.00;56970.53;5088744;28;20038;-71
2024/01/13 03:29:24;;;;;;;84.38;24.67;;;;;;;-139.19;100.00;56970.53;5091797;28;20532;-70
2024/01/13 03:31:49;;;;;;;68.60;22.35;;;;;;;-139.19;100.00;56970.53;5091350;28;20456;-70
2024/01/13 03:34:14;;;;;;;72.82;21.13;;;;;;;-139.19;100.00;56970.53;5074077;28;20418;-70
2024/01/13 03:36:40;;;;;;;74.70;23.10;;;;;;;-139.19;100.00;56970.53;5083073;28;20231;-70
2024/01/13 03:39:05;;;;;;;79.30;21.80;;;;;;;-139.19;100.00;56970.53;5092293;28;20028;-71
2024/01/13 03:41:31;;;;;;;69.15;20.35;;;;;;;-139.19;100.00;56970.53;5082593;28;20028;-71
2024/01/13 03:43:59;;;;;;;79.95;22.35;;;;;;;-139.19;100.00;56970.53;5091696;28;20016;-70
2024/01/13 03:46:25;;;;;;;82.97;21.92;;;;;;;-139.19;100.00;56970.53;5081366;28;20403;-70
2024/01/13 03:48:50;;;;;;;57.35;16.35;;;;;;;-139.19;100.00;56970.53;5086794;28;20016;-71
2024/01/13 03:51:16;;;;;;;82.97;22.77;;;;;;;-139.19;100.00;56970.53;5090737;28;20028;-70
2024/01/13 03:53:42;;;;;;;79.20;21.10;;;;;;;-139.19;100.00;56970.53;5081740;28;20040;-70
2024/01/13 03:56:08;;;;;;;76.90;21.52;;;;;;;-139.19;100.00;56970.53;5086130;28;20032;-71
2024/01/13 03:58:34;;;;;;;69.78;20.88;;;;;;;-139.19;100.00;56970.53;5090313;28;20479;-71
2024/01/13 04:01:00;;;;;;;81.28;23.85;;;;;;;-139.19;100.00;56970.53;5081633;28;20074;-71
2024/01/13 04:03:25;;;;;;;71.40;21.40;;;;;;;-139.19;100.00;56970.53;5080804;28;20040;-71
2024/01/13 04:05:51;;;;;;;70.90;21.42;;;;;;;-139.19;100.00;56970.53;5084598;28;20059;-71
2024/01/13 04:08:18;;;;;;;77.88;22.52;;;;;;;-139.19;100.00;56970.53;5088038;28;20553;-71
2024/01/13 04:10:44;;;;;;;72.80;22.23;;;;;;;-139.19;100.00;56970.53;5080615;28;20056;-71
2024/01/13 04:13:10;;;;;;;72.72;21.88;;;;;;;-139.19;100.00;56970.53;5082340;28;20463;-70
2024/01/13 04:15:36;;;;;;;73.90;21.75;;;;;;;-139.19;100.00;56970.53;5088588;28;20388;-71
2024/01/13 04:18:01;;;;;;;68.30;21.42;;;;;;;-139.19;100.00;56970.53;5090501;28;20028;-71
2024/01/13 04:20:26;;;;;;;60.65;19.30;;;;;;;-139.19;100.00;56970.53;5082625;28;20079;-71
2024/01/13 04:22:52;;;;;;;68.10;19.95;;;;;;;-139.19;100.00;56970.53;5085599;28;20070;-71
2024/01/13 04:25:17;;;;;;;75.22;21.98;;;;;;;-139.19;100.00;56970.53;5086632;28;20059;-71
2024/01/13 04:27:43;;;;;;;63.45;19.85;;;;;;;-139.19;100.00;56970.53;5087533;28;20032;-71
2024/01/13 04:30:08;;;;;;;37.22;12.10;;;;;;;-139.19;100.00;56970.53;5082443;28;20047;-71
2024/01/13 04:32:34;;;;;;;45.75;14.70;;;;;;;-139.19;100.00;56970.53;5087960;28;20032;-71
2024/01/13 04:34:59;;;;;;;49.67;15.07;;;;;;;-139.19;100.00;56970.53;5086328;28;20030;-71
2024/01/13 04:37:24;;;;;;;70.25;19.08;;;;;;;-139.19;100.00;56970.53;5088804;28;20036;-71
2024/01/13 04:39:50;;;;;;;63.78;20.35;;;;;;;-139.19;100.00;56970.53;5085930;28;20042;-71
2024/01/13 04:42:15;;;;;;;45.08;18.00;;;;;;;-139.19;100.00;56970.53;5083486;28;20028;-71
2024/01/13 04:44:40;;;;;;;56.53;18.15;;;;;;;-139.19;100.00;56970.53;5078501;28;20033;-71
2024/01/13 04:47:06;;;;;;;55.55;18.92;;;;;;;-139.19;100.00;56970.53;5080141;28;20488;-71
2024/01/13 04:49:31;;;;;;;47.67;16.48;;;;;;;-139.19;100.00;56970.53;5079577;28;20468;-71
2024/01/13 04:51:56;;;;;;;53.63;16.50;;;;;;;-139.19;100.00;56970.53;5084266;28;20471;-71
2024/01/13 04:54:22;;;;;;;41.03;14.75;;;;;;;-139.19;100.00;56970.53;5085993;28;20361;-71
2024/01/13 04:56:47;;;;;;;57.60;16.92;;;;;;;-139.19;100.00;56970.53;5078776;28;20367;-71
2024/01/13 04:59:13;;;;;;;48.38;16.70;;;;;;;-139.19;100.00;56970.53;5088372;28;20028;-71
2024/01/13 05:01:38;;;;;;;58.83;17.23;;;;;;;-139.19;100.00;56970.53;5088226;28;20551;-71
2024/01/13 05:04:03;;;;;;;59.60;16.80;;;;;;;-139.19;100.00;56970.53;5078672;28;20028;-71
2024/01/13 05:06:29;;;;;;;70.07;20.98;;;;;;;-139.19;100.00;56970.53;5082397;28;20028;-71
2024/01/13 05:08:54;;;;;;;57.90;17.38;;;;;;;-139.19;100.00;56970.53;5082104;28;20377;-71
2024/01/13 05:11:20;;;;;;;51.20;16.88;;;;;;;-139.19;100.00;56970.53;5085148;28;20039;-71
2024/01/13 05:13:45;;;;;;;55.58;17.25;;;;;;;-139.19;100.00;56970.53;5077016;28;20387;-71
2024/01/13 05:16:10;;;;;;;58.17;18.00;;;;;;;-139.19;100.00;56970.53;5081908;28;20375;-71
2024/01/13 05:18:36;;;;;;;62.20;18.67;;;;;;;-139.19;100.00;56970.53;5085567;28;20476;-71
2024/01/13 05:21:01;;;;;;;67.35;20.63;;;;;;;-139.19;100.00;56970.53;5085875;28;20048;-71
2024/01/13 05:23:27;;;;;;;56.58;19.58;;;;;;;-139.19;100.00;56970.53;5076125;28;20458;-71
2024/01/13 05:25:52;;;;;;;53.78;19.02;;;;;;;-139.19;100.00;56970.53;5087002;28;20116;-71
2024/01/13 05:28:17;;;;;;;60.13;18.38;;;;;;;-139.19;100.00;56970.53;5075884;28;20546;-71
2024/01/13 05:30:43;;;;;;;52.53;19.73;;;;;;;-139.19;100.00;56970.53;5079142;28;20097;-72
2024/01/13 05:33:08;;;;;;;70.93;20.90;;;;;;;-139.19;100.00;56970.53;5089010;28;20020;-72
2024/01/13 05:35:34;;;;;;;60.33;19.70;;;;;;;-139.19;100.00;56970.53;5085661;28;20092;-71
2024/01/13 05:37:59;;;;;;;46.30;16.48;;;;;;;-139.19;100.00;56970.53;5077189;28;20068;-72
2024/01/13 05:40:24;;;;;;;61.10;19.38;;;;;;;-139.19;100.00;56970.53;5076002;28;20028;-71
2024/01/13 05:42:50;;;;;;;54.50;16.95;;;;;;;-139.19;100.00;56970.53;5084639;28;20051;-72
2024/01/13 05:45:16;;;;;;;46.53;14.50;;;;;;;-139.19;100.00;56970.53;5078083;28;20434;-71
2024/01/13 05:47:42;;;;;;;39.10;13.88;;;;;;;-139.19;100.00;56970.53;5086789;28;20039;-71
2024/01/13 05:50:08;;;;;;;58.15;19.83;;;;;;;-139.19;100.00;56970.53;5087475;28;20036;-71
2024/01/13 05:52:36;;;;;;;66.38;19.58;;;;;;;-139.19;100.00;56970.53;5076424;28;20387;-71
2024/01/13 05:55:03;;;;;;;55.70;18.63;;;;;;;-139.19;100.00;56970.53;5078238;28;20545;-72
2024/01/13 05:57:28;;;;;;;30.67;10.95;;;;;;;-139.19;100.00;56970.53;5071709;28;20494;-71
2024/01/13 05:59:54;;;;;;;21.67;7.60;;;;;;;-139.19;100.00;56970.53;5080419;28;20031;-71
2024/01/13 06:02:19;;;;;;;52.67;17.38;;;;;;;-139.19;100.00;56970.53;5087357;28;20028;-72
2024/01/13 06:04:46;;;;;;;53.92;18.00;;;;;;;-139.19;100.00;56970.53;5072376;28;20032;-71
2024/01/13 06:07:11;;;;;;;50.67;17.95;;;;;;;-139.19;100.00;56970.53;5077385;28;20029;-71
2024/01/13 06:09:39;;;;;;;56.53;18.90;;;;;;;-139.19;100.00;56970.53;5080417;28;20026;-71
2024/01/13 06:12:06;;;;;;;43.97;14.80;;;;;;;-139.19;100.00;56970.53;5083665;28;20020;-72
2024/01/13 06:14:31;;;;;;;43.03;15.52;;;;;;;-139.19;100.00;56970.53;5082958;28;20115;-72
2024/01/13 06:16:57;;;;;;;38.63;13.30;;;;;;;-139.19;100.00;56970.53;5074127;28;20111;-71
2024/01/13 06:19:22;;;;;;;31.52;13.00;;;;;;;-139.19;100.00;56970.53;5084519;28;20066;-72
2024/01/13 06:21:48;;;;;;;27.77;9.85;;;;;;;-139.19;100.00;56970.53;5086134;28;20044;-71
2024/01/13 06:24:13;;;;;;;30.23;10.77;;;;;;;-139.19;100.00;56970.53;5090152;28;20055;-71
2024/01/13 06:26:40;;;;;;;31.45;11.23;;;;;;;-139.19;100.00;56970.53;5083285;28;20073;-72
2024/01/13 06:29:06;;;;;;;24.73;10.02;;;;;;;-139.19;100.00;56970.53;5086951;28;20151;-71
2024/01/13 06:31:31;;;;;;;25.45;7.85;;;;;;;-139.19;100.00;56970.53;5083647;28;20483;-71
2024/01/13 06:33:57;;;;;;;20.40;8.48;;;;;;;-139.19;100.00;56970.53;5091236;28;20020;-74
2024/01/13 06:36:22;;;;;;;35.65;13.82;;;;;;;-139.19;100.00;56970.53;5084368;28;20070;-71
2024/01/13 06:38:48;;;;;;;32.80;12.80;;;;;;;-139.19;100.00;56970.53;5084120;28;20121;-72
2024/01/13 06:41:13;;;;;;;37.33;13.57;;;;;;;-139.19;100.00;56970.53;5083829;28;20627;-72
2024/01/13 06:43:39;;;;;;;32.70;11.60;;;;;;;-139.19;100.00;56970.53;5090752;28;20028;-72
2024/01/13 06:46:07;;;;;;;26.83;10.82;;;;;;;-139.19;100.00;56970.53;5081327;28;20028;-71
2024/01/13 06:48:32;;;;;;;28.35;10.65;;;;;;;-139.19;100.00;56970.53;5078376;28;20016;-70
2024/01/13 06:50:57;;;;;;;27.70;10.40;;;;;;;-139.19;100.00;56970.53;5083002;28;20023;-70
2024/01/13 06:53:23;;;;;;;30.25;10.30;;;;;;;-139.19;100.00;56970.53;5083714;28;20380;-71
2024/01/13 06:55:48;;;;;;;51.33;16.90;;;;;;;-139.19;100.00;56970.53;5093444;28;20024;-71
2024/01/13 06:58:13;;;;;;;43.47;14.90;;;;;;;-139.19;100.00;56970.53;5090444;28;20540;-71
2024/01/13 07:00:39;;;;;;;45.60;15.10;;;;;;;-139.19;100.00;56970.53;5074837;28;20570;-70
2024/01/13 07:03:04;;;;;;;17.88;6.70;;;;;;;-139.19;100.00;56970.53;5074715;28;20056;-70
2024/01/13 07:05:30;;;;;;;17.02;5.45;;;;;;;-139.19;100.00;56970.53;5074819;28;20049;-70
2024/01/13 07:07:59;;;;;;;15.32;5.90;;;;;;;-139.19;100.00;56970.53;5074925;28;20037;-71
2024/01/13 07:10:25;;;;;;;17.42;6.50;;;;;;;-139.19;100.00;56970.53;5078101;28;20059;-71
2024/01/13 07:12:50;;;;;;;16.77;5.68;;;;;;;-139.19;100.00;56970.53;5085818;28;20044;-71
2024/01/13 07:15:16;;;;;;;26.20;8.13;;;;;;;-139.19;100.00;56970.53;5074540;28;20044;-70
2024/01/13 07:17:41;;;;;;;23.23;7.82;;;;;;;-139.19;100.00;56970.53;5080833;28;20020;-70
2024/01/13 07:20:07;;;;;;;16.90;7.00;;;;;;;-139.19;100.00;56970.53;5080843;28;20508;-70
2024/01/13 07:22:34;;;;;;;19.45;7.78;;;;;;;-139.19;100.00;56970.53;5092046;28;20071;-70
2024/01/13 07:24:59;;;;;;;21.10;8.70;;;;;;;-139.19;100.00;56970.53;5086725;28;20024;-70
2024/01/13 07:27:25;;;;;;;31.23;11.70;;;;;;;-139.19;100.00;56970.53;5074801;28;20032;-70
2024/01/13 07:29:50;;;;;;;37.33;13.32;;;;;;;-139.19;100.00;56970.53;5085964;28;20016;-70
2024/01/13 07:32:16;;;;;;;34.03;13.93;;;;;;;-139.19;100.00;56970.53;5095638;28;20069;-71
2024/01/13 07:34:42;;;;;;;49.33;18.48;;;;;;;-139.19;100.00;56970.53;5095504;28;20472;-71
2024/01/13 07:37:07;;;;;;;34.80;15.85;;;;;;;-139.19;100.00;56970.53;5095492;28;20055;-71
2024/01/13 07:39:32;;;;;;;39.85;16.48;;;;;;;-139.19;100.00;56970.53;5095572;28;20024;-70
2024/01/13 07:41:58;;;;;;;35.67;15.45;;;;;;;-139.19;100.00;56970.53;5085115;28;20448;-70
2024/01/13 07:44:23;;;;;;;36.75;13.30;;;;;;;-139.19;100.00;56970.53;5075129;28;20383;-71
2024/01/13 07:46:48;;;;;;;27.25;8.95;;;;;;;-139.19;100.00;56970.53;5075001;28;20031;-71
2024/01/13 07:49:14;;;;;;;23.00;8.75;;;;;;;-139.19;100.00;56970.53;5079161;28;20020;-71
2024/01/13 07:51:39;;;;;;;21.55;7.80;;;;;;;-139.19;100.00;56970.53;5077938;28;20032;-70
2024/01/13 07:54:04;;;;;;;19.25;8.00;;;;;;;-139.19;100.00;56970.53;5079734;28;20085;-70
2024/01/13 07:56:30;;;;;;;18.67;7.45;;;;;;;-139.19;100.00;56970.53;5090373;28;20441;-72
2024/01/13 07:58:56;;;;;;;18.13;7.00;;;;;;;-139.19;100.00;56970.53;5079281;28;20050;-72
2024/01/13 08:01:21;;;;;;;22.15;7.43;;;;;;;-139.19;100.00;56970.53;5078695;28;20030;-72
2024/01/13 08:03:47;;;;;;;22.10;7.75;;;;;;;-139.19;100.00;56970.53;5085716;28;20047;-72
2024/01/13 08:06:13;;;;;;;18.50;8.20;;;;;;;-139.19;100.00;56970.53;5074418;28;20060;-72
2024/01/13 08:08:38;;;;;;;15.95;7.13;;;;;;;-139.19;100.00;56970.53;5082816;28;20031;-72
2024/01/13 08:11:04;;;;;;;20.42;8.18;;;;;;;-139.19;100.00;56970.53;5089196;28;20032;-72
2024/01/13 08:13:29;;;;;;;26.38;9.85;;;;;;;-139.19;100.00;56970.53;5078575;28;20450;-76
2024/01/13 08:15:54;;;;;;;22.13;9.75;;;;;;;-139.19;100.00;56970.53;5075384;28;20369;-66
2024/01/13 08:18:20;;;;;;;26.27;12.07;;;;;;;-139.19;100.00;56970.53;5085506;28;20021;-66
2024/01/13 08:20:45;;;;;;;37.65;14.80;;;;;;;-139.19;100.00;56970.53;5091105;28;20518;-67
2024/01/13 08:23:11;;;;;;;39.38;15.20;;;;;;;-139.19;100.00;56970.53;5090910;28;20471;-66
2024/01/13 08:25:36;;;;;;;32.03;14.77;;;;;;;-139.19;100.00;56970.53;5083592;28;20028;-66
2024/01/13 08:28:02;;;;;;;36.95;16.35;;;;;;;-139.19;100.00;56970.53;5081974;28;20107;-66
2024/01/13 08:30:27;;;;;;;42.25;15.05;;;;;;;-139.19;100.00;56970.53;5091223;28;20069;-66
2024/01/13 08:32:53;;;;;;;32.53;13.25;;;;;;;-139.19;100.00;56970.53;5090543;28;20027;-66
2024/01/13 08:35:19;;;;;;;22.10;9.65;;;;;;;-139.19;100.00;56970.53;5089115;28;20024;-66
2024/01/13 08:37:44;;;;;;;19.77;8.63;;;;;;;-139.19;100.00;56970.53;5084443;28;20031;-66
2024/01/13 08:40:10;;;;;;;22.85;9.30;;;;;;;-139.19;100.00;56970.53;5080675;28;20024;-66
2024/01/13 08:42:38;;;;;;;24.33;8.50;;;;;;;-139.19;100.00;56970.53;5079965;28;20384;-66
2024/01/13 08:45:04;;;;;;;25.42;10.40;;;;;;;-139.19;100.00;56970.53;5077900;28;20035;-68
2024/01/13 08:47:31;;;;;;;30.77;10.15;;;;;;;-139.19;100.00;56970.53;5088441;28;20036;-66
2024/01/13 08:50:04;;;;;;;33.88;12.60;;;;;;;-139.19;100.00;56970.53;5077595;28;20025;-66
2024/01/13 08:52:54;;;;;;;29.13;13.15;;;;;;;-139.19;100.00;56970.53;5084634;28;20478;-66
2024/01/13 08:55:21;;;;;;;37.92;12.93;;;;;;;-139.19;100.00;56970.53;5086961;28;20487;-66
2024/01/13 08:57:52;;;;;;;31.70;12.73;;;;;;;-139.19;100.00;56970.53;5081911;28;20373;-66
2024/01/13 09:00:19;;;;;;;30.95;13.10;;;;;;;-139.19;100.00;56970.53;5082712;28;20472;-66
2024/01/13 09:02:44;;;;;;;30.70;13.20;;;;;;;-139.19;100.00;56970.53;5074412;28;20512;-66
2024/01/13 09:05:10;;;;;;;36.72;14.50;;;;;;;-139.19;100.00;56970.53;5072506;28;20031;-66
2024/01/13 09:07:37;;;;;;;37.95;14.70;;;;;;;-139.19;100.00;56970.53;5079775;28;20075;-67
2024/01/13 09:10:20;;;;;;;29.85;12.95;;;;;;;-139.19;100.00;56970.53;5086700;28;20090;-67
2024/01/13 09:12:46;;;;;;;17.27;6.00;;;;;;;-139.19;100.00;56970.53;5088232;28;20392;-67
2024/01/13 09:15:13;;;;;;;17.40;5.93;;;;;;;-139.19;100.00;56970.53;5088649;28;20020;-67
2024/01/13 09:17:41;;;;;;;14.82;6.03;;;;;;;-139.19;100.00;56970.53;5083946;28;20028;-67
2024/01/13 09:20:30;;;;;;;12.48;5.35;;;;;;;-139.19;100.00;56970.53;5077649;28;20037;-67
2024/01/13 09:22:58;;;;;;;13.27;6.43;;;;;;;-139.19;100.00;56970.53;5085416;28;20077;-67
2024/01/13 09:25:25;;;;;;;20.25;8.48;;;;;;;-139.19;100.00;56970.53;5080678;28;20028;-67
2024/01/13 09:28:04;;;;;;;20.73;8.63;;;;;;;-139.19;100.00;56970.53;5083582;28;20036;-67
2024/01/13 09:30:59;;;;;;;14.82;6.15;;;;;;;-139.19;100.00;56970.53;5076655;28;20032;-67
2024/01/13 09:33:51;;;;;;;16.23;5.85;;;;;;;-139.19;100.00;56970.53;5079048;28;20116;-67
2024/01/13 09:36:18;;;;;;;14.48;5.63;;;;;;;-139.19;100.00;56970.53;5080862;28;20032;-67
2024/01/13 09:38:44;;;;;;;14.60;6.28;;;;;;;-139.19;100.00;56970.53;5081160;28;20029;-67
2024/01/13 09:41:10;;;;;;;15.50;6.57;;;;;;;-139.19;100.00;56970.53;5087553;28;20082;-67
2024/01/13 09:43:58;;;;;;;20.80;7.95;;;;;;;-139.19;100.00;56970.53;5080717;28;20020;-67
2024/01/13 09:46:30;;;;;;;17.90;7.93;;;;;;;-139.19;100.00;56970.53;5073995;28;20545;-79
2024/01/13 09:48:57;;;;;;;22.88;9.10;;;;;;;-139.19;100.00;56970.53;5074568;28;20017;-67
2024/01/13 09:51:31;;;;;;;30.92;13.20;;;;;;;-139.19;100.00;56970.53;5092599;28;20031;-68
2024/01/13 09:54:06;;;;;;;31.90;14.50;;;;;;;-139.19;100.00;56970.53;5097932;28;20384;-69
2024/01/13 09:56:45;;;;;;;30.42;15.05;;;;;;;-139.19;100.00;56970.53;5088286;28;20376;-67
2024/01/13 09:59:12;;;;;;;34.88;15.82;;;;;;;-139.19;100.00;56970.53;5084360;28;20451;-67
2024/01/13 10:01:44;;;;;;;25.65;8.23;;;;;;;-139.19;100.00;56970.53;5084540;28;20016;-67
2024/01/13 10:04:21;;;;;;;20.70;8.07;;;;;;;-139.19;100.00;56970.53;5084543;28;20504;-67
2024/01/13 10:06:59;;;;;;;18.88;7.18;;;;;;;-139.19;100.00;56970.53;5087270;28;20518;-67
2024/01/13 10:09:45;;;;;;;18.85;8.35;;;;;;;-139.19;100.00;56970.53;5076270;28;20400;-67
2024/01/13 10:12:28;;;;;;;18.05;8.20;;;;;;;-139.19;100.00;56970.53;5083373;28;20031;-81
2024/01/13 10:15:50;;;;;;;19.45;9.95;;;;;;;-139.19;100.00;56970.53;5083550;28;20472;-67
2024/01/13 10:19:14;;;;;;;38.75;17.80;;;;;;;-139.19;100.00;56970.53;5094853;28;20036;-66
2024/01/13 10:22:37;;;;;;;21.73;10.93;;;;;;;-139.19;100.00;56970.53;5089801;28;20048;-66
2024/01/13 10:26:03;;;;;;;31.77;11.00;;;;;;;-139.19;100.00;56970.53;5082251;28;20027;-66
2024/01/13 10:29:28;;;;;;;24.35;11.93;;;;;;;-139.19;100.00;56970.53;5079768;28;20032;-66
2024/01/13 10:32:53;;;;;;;30.48;14.77;;;;;;;-139.19;100.00;56970.53;5079479;28;20040;-66
2024/01/13 10:36:27;;;;;;;36.33;15.63;;;;;;;-139.19;100.00;56970.53;5085532;28;20028;-66
2024/01/13 10:39:51;;;;;;;39.97;16.55;;;;;;;-139.19;100.00;56970.53;5079091;28;20083;-65
2024/01/13 10:42:34;;;;;;;32.50;14.40;;;;;;;-139.19;100.00;56970.53;5088713;28;20375;-66
2024/01/13 10:45:52;;;;;;;44.88;18.48;;;;;;;-139.19;100.00;56970.53;5080309;28;20411;-66
2024/01/13 10:49:31;;;;;;;36.63;16.35;;;;;;;-139.19;100.00;56970.53;5079751;28;20089;-66
2024/01/13 10:53:05;;;;;;;47.17;18.25;;;;;;;-139.19;100.00;56970.53;5070289;28;20027;-66
2024/01/13 10:56:30;;;;;;;45.15;16.73;;;;;;;-139.19;100.00;56970.53;5083629;28;20063;-66
2024/01/13 10:59:55;;;;;;;27.42;13.93;;;;;;;-139.19;100.00;56970.53;5089368;28;20032;-66
2024/01/13 11:03:19;;;;;;;38.67;17.75;;;;;;;-139.19;100.00;56970.53;5082443;28;20486;-66
2024/01/13 11:06:43;;;;;;;34.83;15.05;;;;;;;-139.19;100.00;56970.53;5078341;28;20065;-66